createdAt,value
2024-01-20T00:04:55.126Z,99150.3
2024-01-20T00:10:31.860Z,99158.6
2024-01-20T00:16:08.222Z,99161.5
2024-01-20T00:21:44.199Z,99165.5
2024-01-20T00:27:21.428Z,99167
2024-01-20T00:32:58.932Z,99170.1
2024-01-20T00:38:35.250Z,99167.8
2024-01-20T00:44:11.995Z,99170.8
2024-01-20T00:49:48.313Z,99170
2024-01-20T00:55:24.271Z,99174.3
2024-01-20T01:01:00.392Z,99180.6
2024-01-20T01:06:36.008Z,99191.1
2024-01-20T01:12:11.988Z,99195.5
2024-01-20T01:17:47.338Z,99192.2
2024-01-20T01:23:23.710Z,99195.5
2024-01-20T01:29:02.036Z,99200.6
2024-01-20T01:34:38.666Z,99205.9
2024-01-20T01:40:14.667Z,99213.6
2024-01-20T01:45:49.779Z,99218.4
2024-01-20T01:51:25.140Z,99228.9
2024-01-20T01:57:01.212Z,99238.4
2024-01-20T02:02:37.249Z,99249.4
2024-01-20T02:08:12.340Z,99261.4
2024-01-20T02:13:47.993Z,99266.4
2024-01-20T02:19:24.231Z,99267.4
2024-01-20T02:25:02.683Z,99268.8
2024-01-20T02:30:38.215Z,99275.8
2024-01-20T02:36:13.782Z,99284.2
2024-01-20T02:41:49.487Z,99286.7
2024-01-20T02:47:25.271Z,99294.7
2024-01-20T02:53:01.028Z,99294.6
2024-01-20T02:58:37.038Z,99291.2
2024-01-20T03:04:13.333Z,99296.1
2024-01-20T03:09:49.638Z,99297.6
2024-01-20T03:15:26.155Z,99303
2024-01-20T03:21:02.450Z,99303.6
2024-01-20T03:26:38.099Z,99298.9
2024-01-20T03:32:13.388Z,99301.3
2024-01-20T03:37:48.839Z,99307.5
2024-01-20T03:43:24.397Z,99313.8
2024-01-20T03:49:00.453Z,99317.2
2024-01-20T03:54:37.216Z,99322.9
2024-01-20T04:00:13.181Z,99333.3
2024-01-20T04:05:48.447Z,99338.3
2024-01-20T04:11:24.111Z,99338.9
2024-01-20T04:16:59.379Z,99337.7
2024-01-20T04:22:34.365Z,99334.1
2024-01-20T04:28:10.119Z,99335
2024-01-20T04:33:47.030Z,99329.1
2024-01-20T04:39:24.024Z,99327.9
2024-01-20T04:45:00.389Z,99331.5
2024-01-20T04:50:36.277Z,99329.7
2024-01-20T04:56:12.072Z,99335.1
2024-01-20T05:01:47.505Z,99340.3
2024-01-20T05:07:23.444Z,99346.1
2024-01-20T05:12:58.821Z,99341.3
2024-01-20T05:18:35.517Z,99348.3
2024-01-20T05:24:12.679Z,99342.6
2024-01-20T05:29:48.545Z,99338.7
2024-01-20T05:35:24.318Z,99335.9
2024-01-20T05:40:59.861Z,99334
2024-01-20T05:46:35.463Z,99336.2
2024-01-20T05:52:11.274Z,99332.5
2024-01-20T05:57:46.724Z,99335.2
2024-01-20T06:03:22.951Z,99334.8
2024-01-20T06:08:59.022Z,99330.1
2024-01-20T06:14:34.742Z,99335
2024-01-20T06:20:10.017Z,99342.8
2024-01-20T06:25:46.101Z,99340.8
2024-01-20T06:31:23.503Z,99349.9
2024-01-20T06:36:58.832Z,99347.4
2024-01-20T06:42:34.088Z,99350.8
2024-01-20T06:48:10.925Z,99376.8
2024-01-20T06:53:47.506Z,99385
2024-01-20T06:59:23.592Z,99383.7
2024-01-20T07:04:58.726Z,99392.8
2024-01-20T07:10:34.064Z,99391.7
2024-01-20T07:16:09.491Z,99399.8
2024-01-20T07:21:45.492Z,99405.7
2024-01-20T07:27:21.701Z,99422.9
2024-01-20T07:32:58.191Z,99435.3
2024-01-20T07:38:34.968Z,99454.6
2024-01-20T07:44:10.144Z,99463
2024-01-20T07:49:46.880Z,99454.2
2024-01-20T07:55:22.899Z,99468.3
2024-01-20T08:00:58.147Z,99466.8
2024-01-20T08:06:35.381Z,99467.6
2024-01-20T08:12:11.789Z,99483.7
2024-01-20T08:17:48.074Z,99493.3
2024-01-20T08:23:24.380Z,99510.9
2024-01-20T08:28:59.599Z,99518.8
2024-01-20T08:34:35.250Z,99525.6
2024-01-20T08:40:12.165Z,99536.5
2024-01-20T08:45:48.105Z,99535.5
2024-01-20T08:51:23.865Z,99537.4
2024-01-20T08:57:00.011Z,99539.4
2024-01-20T09:02:35.650Z,99548.8
2024-01-20T09:08:11.687Z,99559.1
2024-01-20T09:13:47.110Z,99558.9
2024-01-20T09:19:23.264Z,99566.3
2024-01-20T09:25:00.251Z,99564.7
2024-01-20T09:30:36.066Z,99558.2
2024-01-20T09:36:13.429Z,99566.8
2024-01-20T09:41:49.741Z,99567.6
2024-01-20T09:47:25.980Z,99566.6
2024-01-20T09:53:01.939Z,99565.3
2024-01-20T09:58:37.529Z,99574.8
2024-01-20T10:04:14.067Z,99573.8
2024-01-20T10:09:50.775Z,99567.6
2024-01-20T10:15:28.849Z,99566
2024-01-20T10:21:11.457Z,99566.3
2024-01-20T10:26:47.748Z,99561.8
2024-01-20T10:32:23.441Z,99568.5
2024-01-20T10:37:59.510Z,99566.5
2024-01-20T10:43:34.995Z,99560.2
2024-01-20T10:49:10.871Z,99556.2
2024-01-20T10:54:48.442Z,99561.8
2024-01-20T11:00:25.013Z,99549
2024-01-20T11:06:02.215Z,99538.4
2024-01-20T11:11:42.192Z,99535.2
2024-01-20T11:17:18.566Z,99532.2
2024-01-20T11:22:54.007Z,99523.7
2024-01-20T11:28:30.127Z,99516.7
2024-01-20T11:34:07.599Z,99512.9
2024-01-20T11:39:45.629Z,99501.1
2024-01-20T11:45:22.396Z,99490.7
2024-01-20T11:50:59.097Z,99486.7
2024-01-20T11:56:35.179Z,99474.8
2024-01-20T12:02:11.208Z,99461.2
2024-01-20T12:07:46.716Z,99456.5
2024-01-20T12:13:22.975Z,99453.9
2024-01-20T12:18:59.266Z,99447.9
2024-01-20T12:24:35.664Z,99440.4
2024-01-20T12:30:12.299Z,99428.4
2024-01-20T12:35:48.332Z,99417.5
2024-01-20T12:41:23.866Z,99416
2024-01-20T12:46:59.829Z,99415.6
2024-01-20T12:52:35.971Z,99416.7
2024-01-20T12:58:11.239Z,99407.6
2024-01-20T13:03:47.479Z,99406.6
2024-01-20T13:09:23.926Z,99417.6
2024-01-20T13:15:02.084Z,99409.6
2024-01-20T13:20:38.408Z,99405.5
2024-01-20T13:26:14.503Z,99399.4
2024-01-20T13:31:49.773Z,99405.5
2024-01-20T13:37:26.002Z,99389.9
2024-01-20T13:43:01.529Z,99386.2
2024-01-20T13:48:37.814Z,99383.8
2024-01-20T13:54:14.145Z,99376.3
2024-01-20T13:59:50.436Z,99383.3
2024-01-20T14:05:25.675Z,99381.5
2024-01-20T14:11:01.159Z,99374
2024-01-20T14:16:36.915Z,99375.4
2024-01-20T14:22:12.550Z,99375.5
2024-01-20T14:27:48.189Z,99380
2024-01-20T14:33:24.815Z,99381.5
2024-01-20T14:39:01.902Z,99383.6
2024-01-20T14:44:37.876Z,99383.7
2024-01-20T14:50:13.929Z,99381.9
2024-01-20T14:55:49.289Z,99391.7
2024-01-20T15:01:24.719Z,99397.6
2024-01-20T15:07:00.231Z,99403.3
2024-01-20T15:12:36.660Z,99399.7
2024-01-20T15:18:13.600Z,99396.1
2024-01-20T15:23:50.813Z,99394.2
2024-01-20T15:29:25.669Z,99403.1
2024-01-20T15:35:00.897Z,99401.2
2024-01-20T15:40:36.319Z,99405.8
2024-01-20T15:46:12.304Z,99402.5
2024-01-20T15:51:49.226Z,99399.7
2024-01-20T15:57:26.209Z,99406.4
2024-01-20T16:03:02.473Z,99413.8
2024-01-20T16:08:39.209Z,99406.8
2024-01-20T16:14:14.935Z,99400.4
2024-01-20T16:19:50.515Z,99390.2
2024-01-20T16:25:26.713Z,99391.1
2024-01-20T16:31:02.412Z,99388.4
2024-01-20T16:36:38.152Z,99403.6
2024-01-20T16:42:14.416Z,99403
2024-01-20T16:47:56.322Z,99404.9
2024-01-20T16:53:33.055Z,99397
2024-01-20T16:59:08.254Z,99395
2024-01-20T17:04:47.426Z,99387.6
2024-01-20T17:10:23.750Z,99386.6
2024-01-20T17:15:59.206Z,99393.3
2024-01-20T17:21:35.449Z,99392.9
2024-01-20T17:27:11.140Z,99390.6
2024-01-20T17:32:49.224Z,99396.8
2024-01-20T17:38:26.326Z,99389.3
2024-01-20T17:44:01.585Z,99383.9
2024-01-20T17:49:37.874Z,99385.9
2024-01-20T17:55:14.896Z,99384.7
2024-01-20T18:00:50.972Z,99381.9
2024-01-20T18:06:27.714Z,99380.2
2024-01-20T18:12:04.611Z,99388.1
2024-01-20T18:17:40.162Z,99388.5
2024-01-20T18:23:16.247Z,99382.6
2024-01-20T18:28:52.179Z,99378.1
2024-01-20T18:34:28.473Z,99382.9
2024-01-20T18:40:04.859Z,99375.2
2024-01-20T18:45:41.346Z,99380.8
2024-01-20T18:51:18.774Z,99382.3
2024-01-20T18:56:55.327Z,99390.8
2024-01-20T19:02:30.656Z,99394.1
2024-01-20T19:08:05.921Z,99398.1
2024-01-20T19:13:41.210Z,99395.7
2024-01-20T19:19:17.643Z,99399.3
2024-01-20T19:24:54.233Z,99397.9
2024-01-20T19:30:30.389Z,99392.2
2024-01-20T19:36:06.165Z,99384.6
2024-01-20T19:41:41.903Z,99394
2024-01-20T19:47:17.194Z,99403.2
2024-01-20T19:52:52.534Z,99404.7
2024-01-20T19:58:28.404Z,99409.4
2024-01-20T20:04:04.335Z,99408
2024-01-20T20:09:43.885Z,99418.8
2024-01-20T20:15:22.570Z,99433.6
2024-01-20T20:20:58.593Z,99433.4
2024-01-20T20:26:34.647Z,99444.4
2024-01-20T20:32:10.650Z,99448.7
2024-01-20T20:37:47.255Z,99453.8
2024-01-20T20:43:22.819Z,99457.8
2024-01-20T20:48:58.624Z,99452.3
2024-01-20T20:54:36.370Z,99452
2024-01-20T21:00:13.059Z,99450.3
2024-01-20T21:05:49.914Z,99453.1
2024-01-20T21:11:27.166Z,99463.4
2024-01-20T21:17:02.565Z,99460.5
2024-01-20T21:22:38.682Z,99454
2024-01-20T21:28:15.885Z,99449.6
2024-01-20T21:33:53.204Z,99450.9
2024-01-20T21:39:30.504Z,99454.1
2024-01-20T21:45:06.407Z,99458
2024-01-20T21:50:42.254Z,99458
2024-01-20T21:56:17.774Z,99461.4
2024-01-20T22:01:52.713Z,99465.4
2024-01-20T22:07:28.253Z,99475.3
2024-01-20T22:13:03.534Z,99480.5
2024-01-20T22:18:39.710Z,99493.2
2024-01-20T22:24:17.212Z,99497.2
2024-01-20T22:29:52.464Z,99502.9
2024-01-20T22:35:28.076Z,99509.9
2024-01-20T22:41:03.615Z,99515.4
2024-01-20T22:46:40.319Z,99525.1
2024-01-20T22:52:15.916Z,99529.2
2024-01-20T22:57:52.110Z,99528.3
2024-01-20T23:03:28.182Z,99521
2024-01-20T23:09:04.884Z,99523
2024-01-20T23:14:40.733Z,99515.5
2024-01-20T23:20:17.076Z,99514.4
2024-01-20T23:25:52.305Z,99517.2
2024-01-20T23:31:28.573Z,99520.9
2024-01-20T23:37:04.014Z,99524.3
2024-01-20T23:42:39.728Z,99531
2024-01-20T23:48:16.353Z,99534.4
2024-01-20T23:53:52.193Z,99544.6
2024-01-20T23:59:28.686Z,99553.6
